Enid, Oklahoma
Current Conditions -  °F | °C
As of 11:55 AM on Saturday 25 Oct 2014 (Local Time) from KWDG Reporting Station
Clear Clear  
Wind Chill: 81°   Ceiling: Unl
Heat Index: 81°   Visibility: 10mi
Dew Point: 61°   Wind: 6mph
Humidity: 51%   Direction: 130°SE
Pressure: 30.06"   Gusts: NA
Location:  36.4°N, 97.88°W
Report Text: KWDG 251655Z 13005KT 10SM SKC 27/16 A3006
Loading
Personal Weather Stations






























Interactive Weather Map
Tropical Storm Tracking
New forecast layout! Learn more

10-Day Weather Forecast

Advertisements
Track Severe Weather on mobile